sensor_id;sensor_type;location;lat;lon;timestamp;temperature;humidity
25983;DHT22;13773;48.868;10.730;2022-10-19T00:01:46;13.90;99.90
25983;DHT22;13773;48.868;10.730;2022-10-19T00:04:11;13.80;99.90
25983;DHT22;13773;48.868;10.730;2022-10-19T00:06:37;13.80;99.90
25983;DHT22;13773;48.868;10.730;2022-10-19T00:09:09;13.80;99.90
25983;DHT22;13773;48.868;10.730;2022-10-19T00:11:38;13.80;99.90
25983;DHT22;13773;48.868;10.730;2022-10-19T00:14:04;13.70;99.90
25983;DHT22;13773;48.868;10.730;2022-10-19T00:16:33;13.70;99.90
25983;DHT22;13773;48.868;10.730;2022-10-19T00:19:01;13.70;99.90
25983;DHT22;13773;48.868;10.730;2022-10-19T00:21:27;13.70;99.90
25983;DHT22;13773;48.868;10.730;2022-10-19T00:23:53;13.70;99.90
25983;DHT22;13773;48.868;10.730;2022-10-19T00:26:19;13.70;99.90
25983;DHT22;13773;48.868;10.730;2022-10-19T00:28:45;13.70;99.90
25983;DHT22;13773;48.868;10.730;2022-10-19T00:31:15;13.70;99.90
25983;DHT22;13773;48.868;10.730;2022-10-19T00:33:42;13.70;99.90
25983;DHT22;13773;48.868;10.730;2022-10-19T00:36:24;13.70;99.90
25983;DHT22;13773;48.868;10.730;2022-10-19T00:38:51;13.70;99.90
25983;DHT22;13773;48.868;10.730;2022-10-19T00:41:18;13.70;99.90
25983;DHT22;13773;48.868;10.730;2022-10-19T00:44:04;13.70;99.90
25983;DHT22;13773;48.868;10.730;2022-10-19T00:46:36;13.70;99.90
25983;DHT22;13773;48.868;10.730;2022-10-19T00:49:09;13.60;99.90
25983;DHT22;13773;48.868;10.730;2022-10-19T00:51:41;13.60;99.90
25983;DHT22;13773;48.868;10.730;2022-10-19T00:54:09;13.60;99.90
25983;DHT22;13773;48.868;10.730;2022-10-19T00:56:38;13.70;99.90
25983;DHT22;13773;48.868;10.730;2022-10-19T00:59:04;13.70;99.90
25983;DHT22;13773;48.868;10.730;2022-10-19T01:01:32;13.70;99.90
25983;DHT22;13773;48.868;10.730;2022-10-19T01:03:58;13.70;99.90
25983;DHT22;13773;48.868;10.730;2022-10-19T01:06:24;13.70;99.90
25983;DHT22;13773;48.868;10.730;2022-10-19T01:08:50;13.70;99.90
25983;DHT22;13773;48.868;10.730;2022-10-19T01:14:36;13.60;99.90
25983;DHT22;13773;48.868;10.730;2022-10-19T01:20:57;13.70;99.90
25983;DHT22;13773;48.868;10.730;2022-10-19T01:34:40;13.60;99.90
25983;DHT22;13773;48.868;10.730;2022-10-19T01:40:09;13.70;99.90
25983;DHT22;13773;48.868;10.730;2022-10-19T01:48:13;13.70;99.90
25983;DHT22;13773;48.868;10.730;2022-10-19T01:51:43;13.70;99.90
25983;DHT22;13773;48.868;10.730;2022-10-19T01:53:41;13.70;99.90
25983;DHT22;13773;48.868;10.730;2022-10-19T01:56:10;13.80;99.90
25983;DHT22;13773;48.868;10.730;2022-10-19T01:58:38;13.80;99.90
25983;DHT22;13773;48.868;10.730;2022-10-19T02:01:06;13.80;99.90
25983;DHT22;13773;48.868;10.730;2022-10-19T02:03:33;13.80;99.90
25983;DHT22;13773;48.868;10.730;2022-10-19T02:06:03;13.80;99.90
25983;DHT22;13773;48.868;10.730;2022-10-19T02:08:33;13.70;99.90
25983;DHT22;13773;48.868;10.730;2022-10-19T02:11:02;13.80;99.90
25983;DHT22;13773;48.868;10.730;2022-10-19T02:13:29;13.80;99.90
25983;DHT22;13773;48.868;10.730;2022-10-19T02:15:58;13.80;99.90
25983;DHT22;13773;48.868;10.730;2022-10-19T02:18:29;13.80;99.90
25983;DHT22;13773;48.868;10.730;2022-10-19T02:20:57;13.80;99.90
25983;DHT22;13773;48.868;10.730;2022-10-19T02:23:24;13.70;99.90
25983;DHT22;13773;48.868;10.730;2022-10-19T02:25:51;14.90;99.90
25983;DHT22;13773;48.868;10.730;2022-10-19T02:28:17;13.60;99.90
25983;DHT22;13773;48.868;10.730;2022-10-19T02:30:43;13.60;99.90
25983;DHT22;13773;48.868;10.730;2022-10-19T02:33:08;13.60;99.90
25983;DHT22;13773;48.868;10.730;2022-10-19T02:35:36;13.70;99.90
25983;DHT22;13773;48.868;10.730;2022-10-19T02:38:03;13.70;99.90
25983;DHT22;13773;48.868;10.730;2022-10-19T02:40:37;13.70;99.90
25983;DHT22;13773;48.868;10.730;2022-10-19T02:43:10;13.70;99.90
25983;DHT22;13773;48.868;10.730;2022-10-19T02:45:42;13.60;99.90
25983;DHT22;13773;48.868;10.730;2022-10-19T02:48:15;13.60;99.90
25983;DHT22;13773;48.868;10.730;2022-10-19T02:50:43;13.60;99.90
25983;DHT22;13773;48.868;10.730;2022-10-19T02:53:09;13.60;99.90
25983;DHT22;13773;48.868;10.730;2022-10-19T02:55:35;13.60;99.90
25983;DHT22;13773;48.868;10.730;2022-10-19T02:58:01;13.60;99.90
25983;DHT22;13773;48.868;10.730;2022-10-19T03:00:26;13.60;99.90
25983;DHT22;13773;48.868;10.730;2022-10-19T03:02:52;13.60;99.90
25983;DHT22;13773;48.868;10.730;2022-10-19T03:05:18;13.60;99.90
25983;DHT22;13773;48.868;10.730;2022-10-19T03:07:43;13.60;99.90
25983;DHT22;13773;48.868;10.730;2022-10-19T03:10:09;13.70;99.90
25983;DHT22;13773;48.868;10.730;2022-10-19T03:12:35;13.70;99.90
25983;DHT22;13773;48.868;10.730;2022-10-19T03:15:00;13.70;99.90
25983;DHT22;13773;48.868;10.730;2022-10-19T03:17:26;13.70;99.90
25983;DHT22;13773;48.868;10.730;2022-10-19T03:19:52;13.70;99.90
25983;DHT22;13773;48.868;10.730;2022-10-19T03:22:18;13.60;99.90
25983;DHT22;13773;48.868;10.730;2022-10-19T03:24:43;13.60;99.90
25983;DHT22;13773;48.868;10.730;2022-10-19T03:27:09;13.60;99.90
25983;DHT22;13773;48.868;10.730;2022-10-19T03:29:35;13.60;99.90
25983;DHT22;13773;48.868;10.730;2022-10-19T03:32:01;13.60;99.90
25983;DHT22;13773;48.868;10.730;2022-10-19T03:34:26;13.60;99.90
25983;DHT22;13773;48.868;10.730;2022-10-19T03:36:52;13.50;99.90
25983;DHT22;13773;48.868;10.730;2022-10-19T03:39:17;13.50;99.90
25983;DHT22;13773;48.868;10.730;2022-10-19T03:41:44;13.50;99.90
25983;DHT22;13773;48.868;10.730;2022-10-19T03:44:10;13.50;99.90
25983;DHT22;13773;48.868;10.730;2022-10-19T03:46:36;13.50;99.90
25983;DHT22;13773;48.868;10.730;2022-10-19T03:49:03;13.50;99.90
25983;DHT22;13773;48.868;10.730;2022-10-19T03:51:30;13.40;99.90
25983;DHT22;13773;48.868;10.730;2022-10-19T03:54:01;13.50;99.90
25983;DHT22;13773;48.868;10.730;2022-10-19T03:56:28;13.50;99.90
25983;DHT22;13773;48.868;10.730;2022-10-19T03:58:55;13.60;99.90
25983;DHT22;13773;48.868;10.730;2022-10-19T04:01:23;13.60;99.90
25983;DHT22;13773;48.868;10.730;2022-10-19T04:03:57;13.60;99.90
25983;DHT22;13773;48.868;10.730;2022-10-19T04:06:26;13.60;99.90
25983;DHT22;13773;48.868;10.730;2022-10-19T04:08:52;13.50;99.90
25983;DHT22;13773;48.868;10.730;2022-10-19T04:11:20;13.50;99.90
25983;DHT22;13773;48.868;10.730;2022-10-19T04:13:51;13.40;99.90
25983;DHT22;13773;48.868;10.730;2022-10-19T04:16:18;13.40;99.90
25983;DHT22;13773;48.868;10.730;2022-10-19T04:18:44;13.40;99.90
25983;DHT22;13773;48.868;10.730;2022-10-19T04:21:25;13.30;99.90
25983;DHT22;13773;48.868;10.730;2022-10-19T04:23:55;13.30;99.90
25983;DHT22;13773;48.868;10.730;2022-10-19T04:26:21;13.30;99.90
25983;DHT22;13773;48.868;10.730;2022-10-19T04:28:47;13.30;99.90
25983;DHT22;13773;48.868;10.730;2022-10-19T04:31:13;13.30;99.90
25983;DHT22;13773;48.868;10.730;2022-10-19T04:33:39;13.30;99.90
25983;DHT22;13773;48.868;10.730;2022-10-19T04:36:07;13.30;99.90
25983;DHT22;13773;48.868;10.730;2022-10-19T04:38:33;13.30;99.90
25983;DHT22;13773;48.868;10.730;2022-10-19T04:41:07;13.30;99.90
25983;DHT22;13773;48.868;10.730;2022-10-19T04:43:34;13.30;99.90
25983;DHT22;13773;48.868;10.730;2022-10-19T04:46:04;13.30;99.90
25983;DHT22;13773;48.868;10.730;2022-10-19T04:48:30;13.30;99.90
25983;DHT22;13773;48.868;10.730;2022-10-19T04:50:56;13.30;99.90
25983;DHT22;13773;48.868;10.730;2022-10-19T04:53:22;13.30;99.90
25983;DHT22;13773;48.868;10.730;2022-10-19T04:55:49;13.30;99.90
25983;DHT22;13773;48.868;10.730;2022-10-19T04:58:15;13.30;99.90
25983;DHT22;13773;48.868;10.730;2022-10-19T05:00:40;13.30;99.90
25983;DHT22;13773;48.868;10.730;2022-10-19T05:03:06;13.30;99.90
25983;DHT22;13773;48.868;10.730;2022-10-19T05:05:32;13.30;99.90
25983;DHT22;13773;48.868;10.730;2022-10-19T05:07:59;13.30;99.90
25983;DHT22;13773;48.868;10.730;2022-10-19T05:10:24;13.30;99.90
25983;DHT22;13773;48.868;10.730;2022-10-19T05:12:50;13.20;99.90
25983;DHT22;13773;48.868;10.730;2022-10-19T05:15:16;13.20;99.90
25983;DHT22;13773;48.868;10.730;2022-10-19T05:17:41;13.20;99.90
25983;DHT22;13773;48.868;10.730;2022-10-19T05:20:07;13.10;99.90
25983;DHT22;13773;48.868;10.730;2022-10-19T05:22:36;13.00;99.90
25983;DHT22;13773;48.868;10.730;2022-10-19T05:25:02;13.00;99.90
25983;DHT22;13773;48.868;10.730;2022-10-19T05:27:28;13.00;99.90
25983;DHT22;13773;48.868;10.730;2022-10-19T05:29:53;13.00;99.90
25983;DHT22;13773;48.868;10.730;2022-10-19T05:32:19;13.00;99.90
25983;DHT22;13773;48.868;10.730;2022-10-19T05:34:45;12.90;99.90
25983;DHT22;13773;48.868;10.730;2022-10-19T05:37:11;13.00;99.90
25983;DHT22;13773;48.868;10.730;2022-10-19T05:39:36;13.00;99.90
25983;DHT22;13773;48.868;10.730;2022-10-19T05:42:02;13.00;99.90
25983;DHT22;13773;48.868;10.730;2022-10-19T05:44:28;13.10;99.90
25983;DHT22;13773;48.868;10.730;2022-10-19T05:46:53;13.00;99.90
25983;DHT22;13773;48.868;10.730;2022-10-19T05:49:20;13.10;99.90
25983;DHT22;13773;48.868;10.730;2022-10-19T05:51:47;13.10;99.90
25983;DHT22;13773;48.868;10.730;2022-10-19T05:54:13;13.10;99.90
25983;DHT22;13773;48.868;10.730;2022-10-19T05:56:40;13.10;99.90
25983;DHT22;13773;48.868;10.730;2022-10-19T05:59:07;13.10;99.90
25983;DHT22;13773;48.868;10.730;2022-10-19T06:01:35;13.10;99.90
25983;DHT22;13773;48.868;10.730;2022-10-19T06:04:02;13.10;99.90
25983;DHT22;13773;48.868;10.730;2022-10-19T06:06:29;13.00;99.90
25983;DHT22;13773;48.868;10.730;2022-10-19T06:08:56;13.00;99.90
25983;DHT22;13773;48.868;10.730;2022-10-19T06:11:28;13.10;99.90
25983;DHT22;13773;48.868;10.730;2022-10-19T06:13:56;13.10;99.90
25983;DHT22;13773;48.868;10.730;2022-10-19T06:16:23;13.20;99.90
25983;DHT22;13773;48.868;10.730;2022-10-19T06:18:49;13.30;99.90
25983;DHT22;13773;48.868;10.730;2022-10-19T06:21:18;13.40;99.90
25983;DHT22;13773;48.868;10.730;2022-10-19T06:23:48;13.50;99.90
25983;DHT22;13773;48.868;10.730;2022-10-19T06:26:14;13.40;99.90
25983;DHT22;13773;48.868;10.730;2022-10-19T06:28:42;13.50;99.90
25983;DHT22;13773;48.868;10.730;2022-10-19T06:31:08;13.40;99.90
25983;DHT22;13773;48.868;10.730;2022-10-19T06:33:34;13.40;99.90
25983;DHT22;13773;48.868;10.730;2022-10-19T06:36:16;13.50;99.90
25983;DHT22;13773;48.868;10.730;2022-10-19T06:38:43;13.40;99.90
25983;DHT22;13773;48.868;10.730;2022-10-19T06:41:09;13.50;99.90
25983;DHT22;13773;48.868;10.730;2022-10-19T06:43:35;13.50;99.90
25983;DHT22;13773;48.868;10.730;2022-10-19T06:46:07;13.60;99.90
25983;DHT22;13773;48.868;10.730;2022-10-19T06:48:33;13.70;99.90
25983;DHT22;13773;48.868;10.730;2022-10-19T06:51:00;13.80;99.90
25983;DHT22;13773;48.868;10.730;2022-10-19T06:53:26;13.70;99.90
25983;DHT22;13773;48.868;10.730;2022-10-19T06:55:59;13.80;99.90
25983;DHT22;13773;48.868;10.730;2022-10-19T06:58:25;13.90;99.90
25983;DHT22;13773;48.868;10.730;2022-10-19T07:00:58;13.90;99.90
25983;DHT22;13773;48.868;10.730;2022-10-19T07:03:25;13.90;99.90
25983;DHT22;13773;48.868;10.730;2022-10-19T07:05:56;13.90;99.90
25983;DHT22;13773;48.868;10.730;2022-10-19T07:08:23;13.90;99.90
25983;DHT22;13773;48.868;10.730;2022-10-19T07:10:50;13.90;99.90
25983;DHT22;13773;48.868;10.730;2022-10-19T07:13:16;13.90;99.90
25983;DHT22;13773;48.868;10.730;2022-10-19T07:15:42;13.80;99.90
25983;DHT22;13773;48.868;10.730;2022-10-19T07:18:08;13.60;99.90
25983;DHT22;13773;48.868;10.730;2022-10-19T07:20:34;13.50;99.90
25983;DHT22;13773;48.868;10.730;2022-10-19T07:22:59;13.30;99.90
25983;DHT22;13773;48.868;10.730;2022-10-19T07:25:25;13.30;99.90
25983;DHT22;13773;48.868;10.730;2022-10-19T07:27:51;13.20;99.90
25983;DHT22;13773;48.868;10.730;2022-10-19T07:30:17;13.10;99.90
25983;DHT22;13773;48.868;10.730;2022-10-19T07:32:42;13.10;99.90
25983;DHT22;13773;48.868;10.730;2022-10-19T07:35:08;13.10;99.90
25983;DHT22;13773;48.868;10.730;2022-10-19T07:37:34;13.10;99.90
25983;DHT22;13773;48.868;10.730;2022-10-19T07:39:59;13.10;99.90
25983;DHT22;13773;48.868;10.730;2022-10-19T07:42:27;13.10;99.90
25983;DHT22;13773;48.868;10.730;2022-10-19T07:44:55;13.20;99.90
25983;DHT22;13773;48.868;10.730;2022-10-19T07:47:20;13.20;99.90
25983;DHT22;13773;48.868;10.730;2022-10-19T07:49:46;13.30;99.90
25983;DHT22;13773;48.868;10.730;2022-10-19T07:52:12;13.40;99.90
25983;DHT22;13773;48.868;10.730;2022-10-19T07:54:38;13.50;99.90
25983;DHT22;13773;48.868;10.730;2022-10-19T07:57:03;13.60;99.90
25983;DHT22;13773;48.868;10.730;2022-10-19T07:59:29;13.80;99.90
25983;DHT22;13773;48.868;10.730;2022-10-19T08:01:55;14.10;99.90
25983;DHT22;13773;48.868;10.730;2022-10-19T08:04:22;14.40;99.90
25983;DHT22;13773;48.868;10.730;2022-10-19T08:06:48;14.80;99.90
25983;DHT22;13773;48.868;10.730;2022-10-19T08:09:14;15.00;99.90
25983;DHT22;13773;48.868;10.730;2022-10-19T08:11:40;15.20;99.90
25983;DHT22;13773;48.868;10.730;2022-10-19T08:14:05;15.40;99.90
25983;DHT22;13773;48.868;10.730;2022-10-19T08:16:36;15.60;99.90
25983;DHT22;13773;48.868;10.730;2022-10-19T08:19:07;17.60;99.90
25983;DHT22;13773;48.868;10.730;2022-10-19T08:21:34;16.10;99.90
25983;DHT22;13773;48.868;10.730;2022-10-19T08:24:00;15.60;99.90
25983;DHT22;13773;48.868;10.730;2022-10-19T08:26:31;15.70;99.90
25983;DHT22;13773;48.868;10.730;2022-10-19T08:29:02;16.00;99.90
25983;DHT22;13773;48.868;10.730;2022-10-19T08:31:28;16.00;99.90
25983;DHT22;13773;48.868;10.730;2022-10-19T08:33:55;15.60;99.90
25983;DHT22;13773;48.868;10.730;2022-10-19T08:36:21;15.40;99.90
25983;DHT22;13773;48.868;10.730;2022-10-19T08:38:47;15.50;99.90
25983;DHT22;13773;48.868;10.730;2022-10-19T08:46:59;15.50;99.90
25983;DHT22;13773;48.868;10.730;2022-10-19T08:49:28;15.30;99.90
25983;DHT22;13773;48.868;10.730;2022-10-19T08:52:04;15.50;99.90
25983;DHT22;13773;48.868;10.730;2022-10-19T08:54:54;15.60;99.90
25983;DHT22;13773;48.868;10.730;2022-10-19T08:59:57;15.10;99.90
25983;DHT22;13773;48.868;10.730;2022-10-19T09:02:38;14.80;99.90
25983;DHT22;13773;48.868;10.730;2022-10-19T09:05:37;15.20;99.90
25983;DHT22;13773;48.868;10.730;2022-10-19T09:08:00;15.10;99.90
25983;DHT22;13773;48.868;10.730;2022-10-19T09:10:33;14.90;99.90
25983;DHT22;13773;48.868;10.730;2022-10-19T09:15:57;14.80;99.90
25983;DHT22;13773;48.868;10.730;2022-10-19T09:18:25;15.00;99.90
25983;DHT22;13773;48.868;10.730;2022-10-19T09:21:03;14.90;99.90
25983;DHT22;13773;48.868;10.730;2022-10-19T09:23:47;15.00;99.90
25983;DHT22;13773;48.868;10.730;2022-10-19T09:26:23;15.20;99.90
25983;DHT22;13773;48.868;10.730;2022-10-19T09:29:02;15.40;99.90
25983;DHT22;13773;48.868;10.730;2022-10-19T09:31:35;15.50;99.90
25983;DHT22;13773;48.868;10.730;2022-10-19T09:36:55;15.30;99.90
25983;DHT22;13773;48.868;10.730;2022-10-19T09:39:22;15.30;99.90
25983;DHT22;13773;48.868;10.730;2022-10-19T09:44:17;15.20;99.90
25983;DHT22;13773;48.868;10.730;2022-10-19T09:49:45;15.50;99.90
25983;DHT22;13773;48.868;10.730;2022-10-19T09:55:22;15.60;99.90
25983;DHT22;13773;48.868;10.730;2022-10-19T09:57:56;15.60;99.90
25983;DHT22;13773;48.868;10.730;2022-10-19T10:00:25;15.60;99.90
25983;DHT22;13773;48.868;10.730;2022-10-19T10:02:52;15.20;99.90
25983;DHT22;13773;48.868;10.730;2022-10-19T10:05:19;15.30;99.90
25983;DHT22;13773;48.868;10.730;2022-10-19T10:07:47;15.40;99.90
25983;DHT22;13773;48.868;10.730;2022-10-19T10:10:23;15.80;99.90
25983;DHT22;13773;48.868;10.730;2022-10-19T10:12:49;16.10;99.90
25983;DHT22;13773;48.868;10.730;2022-10-19T10:15:20;16.50;99.90
25983;DHT22;13773;48.868;10.730;2022-10-19T10:17:48;16.40;99.90
25983;DHT22;13773;48.868;10.730;2022-10-19T10:20:27;16.40;99.90
25983;DHT22;13773;48.868;10.730;2022-10-19T10:23:03;16.10;99.90
25983;DHT22;13773;48.868;10.730;2022-10-19T10:25:34;15.80;99.90
25983;DHT22;13773;48.868;10.730;2022-10-19T10:28:20;16.10;99.90
25983;DHT22;13773;48.868;10.730;2022-10-19T10:30:47;15.70;99.90
25983;DHT22;13773;48.868;10.730;2022-10-19T10:33:15;16.10;99.90
25983;DHT22;13773;48.868;10.730;2022-10-19T10:35:47;16.20;99.90
25983;DHT22;13773;48.868;10.730;2022-10-19T10:38:22;16.60;99.90
25983;DHT22;13773;48.868;10.730;2022-10-19T10:40:56;17.00;99.90
25983;DHT22;13773;48.868;10.730;2022-10-19T10:43:32;17.10;99.90
25983;DHT22;13773;48.868;10.730;2022-10-19T10:46:06;17.40;99.90
25983;DHT22;13773;48.868;10.730;2022-10-19T10:48:42;17.30;99.90
25983;DHT22;13773;48.868;10.730;2022-10-19T10:53:49;16.40;99.90
25983;DHT22;13773;48.868;10.730;2022-10-19T10:59:04;16.70;99.90
25983;DHT22;13773;48.868;10.730;2022-10-19T11:01:43;16.90;99.90
25983;DHT22;13773;48.868;10.730;2022-10-19T11:04:20;17.10;99.90
25983;DHT22;13773;48.868;10.730;2022-10-19T11:06:56;17.00;99.90
25983;DHT22;13773;48.868;10.730;2022-10-19T11:09:40;17.30;99.90
25983;DHT22;13773;48.868;10.730;2022-10-19T11:12:11;18.60;99.90
25983;DHT22;13773;48.868;10.730;2022-10-19T11:14:48;16.90;99.90
25983;DHT22;13773;48.868;10.730;2022-10-19T11:17:25;16.70;99.90
25983;DHT22;13773;48.868;10.730;2022-10-19T11:19:52;16.70;99.90
25983;DHT22;13773;48.868;10.730;2022-10-19T11:25:44;17.10;99.90
25983;DHT22;13773;48.868;10.730;2022-10-19T11:52:00;17.50;99.90
25983;DHT22;13773;48.868;10.730;2022-10-19T12:00:00;18.20;99.90
25983;DHT22;13773;48.868;10.730;2022-10-19T12:08:10;18.20;99.90
25983;DHT22;13773;48.868;10.730;2022-10-19T12:13:38;17.90;99.90
25983;DHT22;13773;48.868;10.730;2022-10-19T12:16:06;17.50;99.90
25983;DHT22;13773;48.868;10.730;2022-10-19T12:18:50;17.60;99.90
25983;DHT22;13773;48.868;10.730;2022-10-19T12:21:35;17.40;99.90
25983;DHT22;13773;48.868;10.730;2022-10-19T12:24:09;17.20;99.90
25983;DHT22;13773;48.868;10.730;2022-10-19T12:26:36;17.20;99.90
25983;DHT22;13773;48.868;10.730;2022-10-19T12:29:11;17.20;99.90
25983;DHT22;13773;48.868;10.730;2022-10-19T12:31:38;17.20;99.90
25983;DHT22;13773;48.868;10.730;2022-10-19T12:39:11;17.20;99.90
25983;DHT22;13773;48.868;10.730;2022-10-19T12:47:39;18.60;99.90
25983;DHT22;13773;48.868;10.730;2022-10-19T12:50:06;19.10;99.90
25983;DHT22;13773;48.868;10.730;2022-10-19T12:52:44;19.30;99.90
25983;DHT22;13773;48.868;10.730;2022-10-19T12:57:46;19.00;99.90
25983;DHT22;13773;48.868;10.730;2022-10-19T13:00:23;19.00;99.90
25983;DHT22;13773;48.868;10.730;2022-10-19T13:03:15;19.10;99.90
25983;DHT22;13773;48.868;10.730;2022-10-19T13:05:58;19.10;99.90
25983;DHT22;13773;48.868;10.730;2022-10-19T13:08:31;19.30;99.90
25983;DHT22;13773;48.868;10.730;2022-10-19T13:11:05;18.80;99.90
25983;DHT22;13773;48.868;10.730;2022-10-19T13:22:10;18.10;99.90
25983;DHT22;13773;48.868;10.730;2022-10-19T13:41:22;18.40;99.90
25983;DHT22;13773;48.868;10.730;2022-10-19T13:49:24;18.30;99.90
25983;DHT22;13773;48.868;10.730;2022-10-19T14:00:21;18.50;99.90
25983;DHT22;13773;48.868;10.730;2022-10-19T14:05:33;18.70;99.90
25983;DHT22;13773;48.868;10.730;2022-10-19T14:11:01;18.70;99.90
25983;DHT22;13773;48.868;10.730;2022-10-19T14:13:28;18.30;99.90
25983;DHT22;13773;48.868;10.730;2022-10-19T14:15:56;18.30;99.90
25983;DHT22;13773;48.868;10.730;2022-10-19T14:18:32;17.90;99.90
25983;DHT22;13773;48.868;10.730;2022-10-19T14:23:30;17.90;99.90
25983;DHT22;13773;48.868;10.730;2022-10-19T14:28:24;18.00;99.90
25983;DHT22;13773;48.868;10.730;2022-10-19T14:33:21;18.30;99.90
25983;DHT22;13773;48.868;10.730;2022-10-19T14:35:51;18.60;99.90
25983;DHT22;13773;48.868;10.730;2022-10-19T14:38:25;18.70;99.90
25983;DHT22;13773;48.868;10.730;2022-10-19T14:40:52;18.30;99.90
25983;DHT22;13773;48.868;10.730;2022-10-19T14:43:21;18.10;99.90
25983;DHT22;13773;48.868;10.730;2022-10-19T14:46:08;17.90;99.90
25983;DHT22;13773;48.868;10.730;2022-10-19T14:48:39;17.60;99.90
25983;DHT22;13773;48.868;10.730;2022-10-19T14:54:21;17.50;99.90
25983;DHT22;13773;48.868;10.730;2022-10-19T14:57:01;17.10;99.90
25983;DHT22;13773;48.868;10.730;2022-10-19T15:02:18;16.50;99.90
25983;DHT22;13773;48.868;10.730;2022-10-19T15:04:46;16.40;99.90
25983;DHT22;13773;48.868;10.730;2022-10-19T15:07:37;16.40;99.90
25983;DHT22;13773;48.868;10.730;2022-10-19T15:10:07;16.20;99.90
25983;DHT22;13773;48.868;10.730;2022-10-19T15:12:39;16.10;99.90
25983;DHT22;13773;48.868;10.730;2022-10-19T15:15:24;16.10;99.90
25983;DHT22;13773;48.868;10.730;2022-10-19T15:20:33;16.30;99.90
25983;DHT22;13773;48.868;10.730;2022-10-19T15:23:01;16.30;99.90
25983;DHT22;13773;48.868;10.730;2022-10-19T15:25:46;16.30;99.90
25983;DHT22;13773;48.868;10.730;2022-10-19T15:28:34;16.20;99.90
25983;DHT22;13773;48.868;10.730;2022-10-19T15:31:05;16.30;99.90
25983;DHT22;13773;48.868;10.730;2022-10-19T15:33:41;16.10;99.90
25983;DHT22;13773;48.868;10.730;2022-10-19T15:36:10;16.00;99.90
25983;DHT22;13773;48.868;10.730;2022-10-19T15:38:48;15.90;99.90
25983;DHT22;13773;48.868;10.730;2022-10-19T15:41:18;15.70;99.90
25983;DHT22;13773;48.868;10.730;2022-10-19T15:43:56;15.60;99.90
25983;DHT22;13773;48.868;10.730;2022-10-19T15:46:33;15.40;99.90
25983;DHT22;13773;48.868;10.730;2022-10-19T15:51:48;15.00;99.90
25983;DHT22;13773;48.868;10.730;2022-10-19T15:54:16;14.90;99.90
25983;DHT22;13773;48.868;10.730;2022-10-19T15:56:45;14.80;99.90
25983;DHT22;13773;48.868;10.730;2022-10-19T15:59:17;14.70;99.90
25983;DHT22;13773;48.868;10.730;2022-10-19T16:01:44;14.60;99.90
25983;DHT22;13773;48.868;10.730;2022-10-19T16:04:10;14.40;99.90
25983;DHT22;13773;48.868;10.730;2022-10-19T16:06:38;14.30;99.90
25983;DHT22;13773;48.868;10.730;2022-10-19T16:09:05;14.20;99.90
25983;DHT22;13773;48.868;10.730;2022-10-19T16:11:31;14.00;99.90
25983;DHT22;13773;48.868;10.730;2022-10-19T16:13:58;13.80;99.90
25983;DHT22;13773;48.868;10.730;2022-10-19T16:16:31;13.70;99.90
25983;DHT22;13773;48.868;10.730;2022-10-19T16:18:57;13.60;99.90
25983;DHT22;13773;48.868;10.730;2022-10-19T16:21:27;13.60;99.90
25983;DHT22;13773;48.868;10.730;2022-10-19T16:23:53;13.40;99.90
25983;DHT22;13773;48.868;10.730;2022-10-19T16:26:19;13.30;99.90
25983;DHT22;13773;48.868;10.730;2022-10-19T16:28:46;13.30;99.90
25983;DHT22;13773;48.868;10.730;2022-10-19T16:31:13;13.20;99.90
25983;DHT22;13773;48.868;10.730;2022-10-19T16:33:39;13.10;99.90
25983;DHT22;13773;48.868;10.730;2022-10-19T16:36:05;13.00;99.90
25983;DHT22;13773;48.868;10.730;2022-10-19T16:38:32;12.90;99.90
25983;DHT22;13773;48.868;10.730;2022-10-19T16:41:02;12.80;99.90
25983;DHT22;13773;48.868;10.730;2022-10-19T16:43:28;12.70;99.90
25983;DHT22;13773;48.868;10.730;2022-10-19T16:45:54;12.60;99.90
25983;DHT22;13773;48.868;10.730;2022-10-19T16:48:20;12.60;99.90
25983;DHT22;13773;48.868;10.730;2022-10-19T16:53:35;12.40;99.90
25983;DHT22;13773;48.868;10.730;2022-10-19T16:56:10;12.40;99.90
25983;DHT22;13773;48.868;10.730;2022-10-19T16:58:37;12.40;99.90
25983;DHT22;13773;48.868;10.730;2022-10-19T17:01:07;12.40;99.90
25983;DHT22;13773;48.868;10.730;2022-10-19T17:03:33;12.40;99.90
25983;DHT22;13773;48.868;10.730;2022-10-19T17:06:01;12.30;99.90
25983;DHT22;13773;48.868;10.730;2022-10-19T17:08:29;12.20;99.90
25983;DHT22;13773;48.868;10.730;2022-10-19T17:10:54;12.20;99.90
25983;DHT22;13773;48.868;10.730;2022-10-19T17:13:20;12.20;99.90
25983;DHT22;13773;48.868;10.730;2022-10-19T17:15:46;12.20;99.90
25983;DHT22;13773;48.868;10.730;2022-10-19T17:18:11;12.10;99.90
25983;DHT22;13773;48.868;10.730;2022-10-19T17:20:37;12.00;99.90
25983;DHT22;13773;48.868;10.730;2022-10-19T17:23:03;11.90;99.90
25983;DHT22;13773;48.868;10.730;2022-10-19T17:25:28;11.90;99.90
25983;DHT22;13773;48.868;10.730;2022-10-19T17:27:54;11.80;99.90
25983;DHT22;13773;48.868;10.730;2022-10-19T17:30:20;11.80;99.90
25983;DHT22;13773;48.868;10.730;2022-10-19T17:32:45;11.80;99.90
25983;DHT22;13773;48.868;10.730;2022-10-19T17:35:11;11.80;99.90
25983;DHT22;13773;48.868;10.730;2022-10-19T17:37:37;11.70;99.90
25983;DHT22;13773;48.868;10.730;2022-10-19T17:40:03;11.70;99.90
25983;DHT22;13773;48.868;10.730;2022-10-19T17:42:29;11.60;99.90
25983;DHT22;13773;48.868;10.730;2022-10-19T17:44:55;11.60;99.90
25983;DHT22;13773;48.868;10.730;2022-10-19T17:47:21;11.70;99.90
25983;DHT22;13773;48.868;10.730;2022-10-19T17:49:47;11.70;99.90
25983;DHT22;13773;48.868;10.730;2022-10-19T17:52:12;11.60;99.90
25983;DHT22;13773;48.868;10.730;2022-10-19T17:54:38;11.50;99.90
25983;DHT22;13773;48.868;10.730;2022-10-19T17:57:04;11.50;99.90
25983;DHT22;13773;48.868;10.730;2022-10-19T17:59:29;11.40;99.90
25983;DHT22;13773;48.868;10.730;2022-10-19T18:01:55;11.50;99.90
25983;DHT22;13773;48.868;10.730;2022-10-19T18:04:21;11.40;99.90
25983;DHT22;13773;48.868;10.730;2022-10-19T18:06:47;11.30;99.90
25983;DHT22;13773;48.868;10.730;2022-10-19T18:09:12;11.20;99.90
25983;DHT22;13773;48.868;10.730;2022-10-19T18:11:41;11.20;99.90
25983;DHT22;13773;48.868;10.730;2022-10-19T18:14:09;11.10;99.90
25983;DHT22;13773;48.868;10.730;2022-10-19T18:16:38;11.00;99.90
25983;DHT22;13773;48.868;10.730;2022-10-19T18:19:04;11.00;99.90
25983;DHT22;13773;48.868;10.730;2022-10-19T18:21:34;10.90;99.90
25983;DHT22;13773;48.868;10.730;2022-10-19T18:24:01;10.80;99.90